Αρχική σελίδα
METAR-TAF:

METAR-TAF

Αεροδρόμια :

Joplin Regional Airport

Joplin, Μισούρι, Ηνωμένες Πολιτείες Αμερικής

γεωγραφικό πλάτος: 37-09-22N, γεωγραφικό μήκος: 094-30-02W, υψόμετρο: 299 μ

Παρών καιρός

Η αναφορά έγινε 38 λεπτά πριν, στις 09:53 UTC
Άνεμος 6 kt από Ν
Θερμοκρασία 23°C
Υγρασία 89%
Πίεση 1014 hPa
Ορατότητα: 16.1 χλμ
Καθαρός ουρανός

METAR: KJLN 190953Z AUTO 18006KT 10SM CLR 23/21 A2995 RMK AO2 SLP129 T02330211

Χρόνος: 05:31 (10:31 UTC)

Πρόγνωση Καιρού

Η αναφορά έγινε 5 ώρες και 11 λεπτά πριν, στις 05:20 UTC
Η πρόγνωση ισχύει από τις 19 στις 06 UTC έως τις 20 στις 06 UTC
Άνεμος 5 kt από Ν/NA
Ορατότητα: 10 χλμ
Καθαρός ουρανός
Από 19 στις 1700 UTC
Άνεμος 7 kt από Ν/ΝΔ
Ορατότητα: 10 χλμ
Λίγα νέφη σε ύψος 4500 πόδια
Από 20 στις 0000 UTC
Άνεμος 6 kt από Ν
Ορατότητα: 10 χλμ
Καθαρός ουρανός

TAF: KJLN 190520Z 1906/2006 16005KT P6SM SKC FM191700 21007KT P6SM FEW045 FM200000 17006KT P6SM SKC

Μετεωρολογικές αναφορές και προγνώσεις για περισσότερα από 4000 αεροδρόμια (δελτία METAR και TAF).

Οι διαθέσιμοι σταθμοί απεικονίζονται στο χάρτη με κίτρινες και κόκκινες κουκκίδες.

Μετακινήστε το ποντίκι πάνω από τις κουκκίδες για να δείτε το όνομα του σταθμού.

Στη συνέχεια, κάντε κλικ για να δείτε τις μετεωρολογικές αναφορές και τις προγνώσεις καιρού.

Για να αλλάξετε το χάρτη: κάντε κλικ στα πράσινα κουμπιά με τον μαύρο σταυρό για να ζουμάρετε, στο πράσινο κουμπί με την παύλα για να αφαιρέσετε το ζουμ ή στα πράσινα βέλη για να αντιπαραβάλλετε χάρτες.


METAR-TAF: